createdAt,value
2023-02-15T00:01:36.018Z,84.03
2023-02-15T00:04:03.605Z,89.80
2023-02-15T00:06:31.161Z,90.90
2023-02-15T00:08:58.586Z,85.57
2023-02-15T00:11:42.891Z,73.03
2023-02-15T00:14:12.762Z,93.50
2023-02-15T00:16:41.581Z,72.87
2023-02-15T00:19:09.722Z,82.23
2023-02-15T00:21:38.402Z,79.70
2023-02-15T00:24:08.052Z,74.70
2023-02-15T00:26:35.905Z,81.43
2023-02-15T00:29:03.769Z,85.47
2023-02-15T00:31:32.659Z,112.77
2023-02-15T00:34:03.888Z,82.77
2023-02-15T00:36:31.163Z,86.67
2023-02-15T00:38:58.457Z,93.60
2023-02-15T00:41:25.995Z,88.97
2023-02-15T00:43:53.221Z,78.23
2023-02-15T00:46:20.561Z,97.50
2023-02-15T00:48:47.861Z,87.50
2023-02-15T00:51:15.846Z,87.50
2023-02-15T00:53:44.437Z,78.47
2023-02-15T00:56:12.001Z,91.90
2023-02-15T00:58:39.795Z,82.37
2023-02-15T01:01:09.411Z,78.10
2023-02-15T01:03:37.108Z,89.10
2023-02-15T01:06:05.487Z,91.03
2023-02-15T01:08:33.443Z,86.40
2023-02-15T01:11:05.561Z,88.93
2023-02-15T01:13:32.942Z,96.53
2023-02-15T01:16:00.579Z,95.83
2023-02-15T01:18:28.422Z,80.80
2023-02-15T01:20:55.849Z,82.27
2023-02-15T01:23:23.139Z,94.43
2023-02-15T01:25:51.138Z,90.57
2023-02-15T01:28:18.460Z,88.27
2023-02-15T01:30:45.860Z,84.40
2023-02-15T01:33:17.973Z,74.37
2023-02-15T01:35:46.255Z,96.83
2023-02-15T01:38:15.660Z,110.50
2023-02-15T01:40:42.984Z,93.10
2023-02-15T01:43:12.881Z,105.37
2023-02-15T01:45:40.472Z,82.87
2023-02-15T01:48:21.180Z,79.07
2023-02-15T01:50:53.623Z,92.47
2023-02-15T01:53:25.940Z,91.13
2023-02-15T01:55:58.005Z,72.10
2023-02-15T01:58:29.398Z,87.37
2023-02-15T02:01:01.111Z,72.10
2023-02-15T02:03:39.498Z,87.80
2023-02-15T02:06:06.985Z,93.57
2023-02-15T02:08:34.625Z,93.77
2023-02-15T02:11:01.949Z,77.70
2023-02-15T02:13:30.260Z,87.93
2023-02-15T02:16:05.024Z,86.10
2023-02-15T02:18:48.432Z,79.37
2023-02-15T02:21:59.076Z,79.47
2023-02-15T02:25:00.661Z,71.57
2023-02-15T02:27:40.407Z,82.77
2023-02-15T02:30:49.911Z,76.53
2023-02-15T02:33:34.970Z,81.10
2023-02-15T02:36:13.710Z,79.33
2023-02-15T02:38:55.313Z,80.87
2023-02-15T02:41:32.396Z,74.23
2023-02-15T02:44:09.596Z,63.67
2023-02-15T02:46:42.820Z,77.37
2023-02-15T02:49:10.782Z,84.63
2023-02-15T02:51:38.073Z,68.40
2023-02-15T02:54:07.409Z,79.40
2023-02-15T02:56:40.181Z,82.93
2023-02-15T02:59:11.737Z,87.07
2023-02-15T03:01:43.765Z,69.33
2023-02-15T03:04:16.192Z,92.10
2023-02-15T03:06:48.279Z,67.33
2023-02-15T03:09:23.307Z,91.33
2023-02-15T03:11:51.388Z,84.13
2023-02-15T03:14:20.157Z,79.77
2023-02-15T03:16:50.632Z,77.07
2023-02-15T03:19:24.185Z,66.57
2023-02-15T03:21:58.021Z,79.73
2023-02-15T03:24:29.157Z,76.50
2023-02-15T03:26:56.973Z,89.73
2023-02-15T03:29:30.383Z,87.30
2023-02-15T03:32:02.089Z,82.03
2023-02-15T03:34:30.484Z,67.73
2023-02-15T03:37:03.740Z,87.57
2023-02-15T03:39:34.299Z,88.97
2023-02-15T03:42:09.414Z,72.87
2023-02-15T03:44:44.784Z,75.53
2023-02-15T03:47:15.036Z,77.10
2023-02-15T03:49:47.742Z,71.40
2023-02-15T03:52:17.365Z,68.27
2023-02-15T03:54:46.378Z,74.00
2023-02-15T03:57:35.065Z,63.37
2023-02-15T04:00:22.992Z,78.80
2023-02-15T04:03:11.609Z,76.70
2023-02-15T04:05:40.212Z,104.30
2023-02-15T04:08:08.215Z,82.17
2023-02-15T04:10:53.586Z,69.53
2023-02-15T04:13:21.441Z,49.37
2023-02-15T04:16:03.871Z,67.03
2023-02-15T04:18:51.278Z,65.63
2023-02-15T04:21:38.153Z,65.83
2023-02-15T04:24:24.240Z,64.67
2023-02-15T04:26:53.127Z,73.57
2023-02-15T04:29:20.773Z,77.53
2023-02-15T04:31:48.286Z,75.70
2023-02-15T04:34:16.130Z,61.00
2023-02-15T04:36:44.338Z,51.67
2023-02-15T04:39:14.748Z,64.63
2023-02-15T04:41:42.035Z,68.50
2023-02-15T04:44:09.623Z,63.87
2023-02-15T04:46:37.208Z,70.23
2023-02-15T04:49:04.651Z,70.83
2023-02-15T04:51:31.908Z,67.27
2023-02-15T04:53:59.920Z,75.90
2023-02-15T04:56:27.232Z,77.40
2023-02-15T04:58:54.609Z,69.97
2023-02-15T05:01:21.946Z,76.00
2023-02-15T05:03:49.283Z,72.43
2023-02-15T05:06:16.551Z,63.50
2023-02-15T05:08:44.011Z,58.03
2023-02-15T05:11:12.104Z,92.87
2023-02-15T05:13:39.406Z,63.27
2023-02-15T05:16:06.725Z,86.97
2023-02-15T05:18:34.216Z,80.40
2023-02-15T05:21:01.555Z,69.90
2023-02-15T05:23:28.848Z,72.33
2023-02-15T05:26:14.339Z,58.23
2023-02-15T05:28:42.262Z,62.03
2023-02-15T05:31:12.978Z,58.30
2023-02-15T05:33:41.173Z,74.50
2023-02-15T05:36:09.267Z,58.33
2023-02-15T05:38:37.672Z,56.37
2023-02-15T05:41:05.167Z,54.50
2023-02-15T05:43:32.789Z,72.33
2023-02-15T05:46:01.656Z,86.17
2023-02-15T05:48:29.450Z,90.70
2023-02-15T05:51:00.819Z,69.80
2023-02-15T05:53:28.427Z,66.07
2023-02-15T05:55:59.264Z,73.17
2023-02-15T05:58:27.735Z,67.20
2023-02-15T06:00:54.984Z,67.17
2023-02-15T06:03:23.467Z,92.23
2023-02-15T06:05:50.811Z,64.53
2023-02-15T06:08:18.427Z,64.63
2023-02-15T06:10:47.222Z,91.00
2023-02-15T06:13:14.454Z,69.37
2023-02-15T06:15:41.801Z,68.00
2023-02-15T06:18:09.076Z,93.17
2023-02-15T06:20:37.076Z,73.53
2023-02-15T06:23:04.450Z,77.47
2023-02-15T06:25:31.993Z,65.00
2023-02-15T06:27:59.306Z,74.13
2023-02-15T06:30:26.673Z,81.97
2023-02-15T06:32:53.990Z,80.10
2023-02-15T06:35:22.183Z,77.90
2023-02-15T06:37:50.525Z,84.40
2023-02-15T06:40:18.332Z,76.40
2023-02-15T06:42:46.021Z,94.90
2023-02-15T06:45:13.555Z,77.70
2023-02-15T06:47:40.934Z,79.93
2023-02-15T06:50:09.940Z,82.80
2023-02-15T06:52:37.188Z,93.00
2023-02-15T06:55:05.837Z,66.20
2023-02-15T06:57:33.518Z,67.37
2023-02-15T07:00:01.613Z,68.77
2023-02-15T07:02:29.204Z,85.20
2023-02-15T07:04:56.516Z,86.37
2023-02-15T07:07:24.794Z,91.87
2023-02-15T07:09:52.178Z,62.23
2023-02-15T07:12:38.139Z,69.67
2023-02-15T07:15:06.656Z,87.03
2023-02-15T07:17:36.290Z,72.43
2023-02-15T07:20:05.067Z,62.47
2023-02-15T07:22:34.209Z,94.93
2023-02-15T07:25:01.562Z,85.67
2023-02-15T07:27:29.624Z,72.53
2023-02-15T07:29:56.924Z,81.50
2023-02-15T07:32:24.261Z,70.63
2023-02-15T07:34:51.574Z,72.10
2023-02-15T07:37:18.858Z,87.57
2023-02-15T07:39:46.138Z,69.47
2023-02-15T07:42:13.480Z,92.07
2023-02-15T07:44:41.365Z,96.43
2023-02-15T07:47:08.753Z,74.30
2023-02-15T07:49:36.084Z,71.23
2023-02-15T07:52:03.453Z,69.17
2023-02-15T07:54:30.678Z,66.97
2023-02-15T07:56:57.918Z,74.97
2023-02-15T07:59:25.181Z,77.07
2023-02-15T08:01:54.342Z,59.67
2023-02-15T08:04:21.614Z,66.10
2023-02-15T08:06:52.630Z,62.63
2023-02-15T08:09:19.998Z,63.23
2023-02-15T08:11:48.630Z,71.00
2023-02-15T08:14:17.903Z,63.00
2023-02-15T08:16:46.715Z,62.40
2023-02-15T08:19:16.284Z,59.30
2023-02-15T08:21:45.433Z,49.33
2023-02-15T08:24:15.057Z,47.53
2023-02-15T08:26:46.980Z,53.70
2023-02-15T08:29:14.929Z,43.43
2023-02-15T08:31:42.643Z,56.83
2023-02-15T08:34:11.584Z,46.57
2023-02-15T08:36:39.710Z,47.53
2023-02-15T08:39:08.195Z,38.87
2023-02-15T08:41:36.743Z,45.30
2023-02-15T08:44:05.873Z,50.10
2023-02-15T08:46:35.570Z,44.67
2023-02-15T08:49:03.483Z,42.30
2023-02-15T08:51:32.668Z,48.33
2023-02-15T08:54:02.915Z,47.87
2023-02-15T08:56:33.942Z,40.40
2023-02-15T08:59:02.092Z,40.47
2023-02-15T09:01:31.228Z,41.97
2023-02-15T09:04:00.157Z,50.23
2023-02-15T09:06:29.695Z,46.83
2023-02-15T09:08:58.125Z,39.93
2023-02-15T09:11:27.673Z,38.73
2023-02-15T09:13:57.352Z,43.00
2023-02-15T09:16:26.275Z,43.53
2023-02-15T09:18:54.052Z,36.80
2023-02-15T09:21:23.117Z,43.10
2023-02-15T09:23:52.329Z,52.10
2023-02-15T09:26:22.406Z,37.37
2023-02-15T09:28:55.714Z,42.30
2023-02-15T09:31:24.735Z,32.40
2023-02-15T09:33:52.365Z,31.90
2023-02-15T09:36:21.794Z,36.87
2023-02-15T09:38:54.628Z,29.10
2023-02-15T09:41:56.687Z,31.70
2023-02-15T09:44:37.742Z,30.90
2023-02-15T09:47:24.848Z,35.10
2023-02-15T09:49:55.637Z,29.83
2023-02-15T09:52:34.607Z,23.80
2023-02-15T09:55:17.444Z,47.77
2023-02-15T09:57:54.107Z,26.53
2023-02-15T10:00:31.112Z,27.40
2023-02-15T10:03:20.390Z,30.47
2023-02-15T10:06:02.020Z,33.20
2023-02-15T10:08:57.645Z,25.27
2023-02-15T10:11:41.889Z,20.83
2023-02-15T10:14:40.268Z,23.80
2023-02-15T10:17:26.198Z,24.27
2023-02-15T10:20:08.268Z,33.00
2023-02-15T10:22:47.133Z,26.67
2023-02-15T10:25:29.983Z,22.47
2023-02-15T10:28:04.229Z,22.07
2023-02-15T10:30:41.065Z,27.17
2023-02-15T10:33:18.774Z,25.30
2023-02-15T10:35:53.715Z,22.80
2023-02-15T10:38:29.086Z,22.57
2023-02-15T10:41:06.839Z,18.50
2023-02-15T10:43:48.567Z,24.23
2023-02-15T10:46:32.954Z,22.50
2023-02-15T10:49:24.583Z,21.00
2023-02-15T10:52:04.442Z,23.33
2023-02-15T10:54:37.839Z,27.00
2023-02-15T10:57:17.764Z,27.03
2023-02-15T11:00:04.573Z,25.50
2023-02-15T11:02:46.261Z,22.60
2023-02-15T11:05:27.894Z,24.83
2023-02-15T11:07:59.704Z,19.83
2023-02-15T11:10:32.498Z,24.20
2023-02-15T11:13:04.406Z,24.50
2023-02-15T11:15:35.189Z,24.40
2023-02-15T11:18:10.513Z,23.73
2023-02-15T11:20:43.645Z,20.77
2023-02-15T11:23:16.553Z,29.70
2023-02-15T11:25:47.147Z,28.50
2023-02-15T11:28:22.024Z,34.83
2023-02-15T11:30:54.974Z,28.67
2023-02-15T11:33:25.576Z,33.57
2023-02-15T11:35:59.724Z,31.97
2023-02-15T11:38:32.176Z,33.07
2023-02-15T11:41:04.380Z,27.10
2023-02-15T11:43:36.405Z,35.30
2023-02-15T11:46:04.127Z,29.63
2023-02-15T11:48:32.558Z,24.90
2023-02-15T11:51:02.868Z,36.47
2023-02-15T11:53:34.249Z,31.17
2023-02-15T11:56:04.294Z,27.13
2023-02-15T11:58:38.535Z,32.90
2023-02-15T12:01:14.826Z,28.07
2023-02-15T12:03:47.945Z,23.33
2023-02-15T12:06:24.616Z,34.00
2023-02-15T12:08:59.804Z,28.10
2023-02-15T12:11:33.213Z,26.60
2023-02-15T12:14:05.510Z,25.47
2023-02-15T12:16:42.179Z,26.03
2023-02-15T12:19:25.993Z,27.40
2023-02-15T12:21:54.238Z,27.83
2023-02-15T12:24:25.567Z,33.43
2023-02-15T12:27:02.971Z,28.73
2023-02-15T12:29:36.521Z,22.30
2023-02-15T12:32:05.325Z,28.70
2023-02-15T12:34:39.716Z,24.53
2023-02-15T12:37:16.184Z,22.10
2023-02-15T12:39:53.223Z,32.87
2023-02-15T12:42:21.965Z,33.60
2023-02-15T12:44:58.568Z,26.43
2023-02-15T12:47:30.170Z,31.13
2023-02-15T12:50:17.231Z,22.93
2023-02-15T12:52:47.771Z,27.93
2023-02-15T12:55:24.640Z,28.50
2023-02-15T12:58:07.802Z,34.33
2023-02-15T13:00:35.860Z,24.43
2023-02-15T13:03:04.502Z,28.20
2023-02-15T13:05:38.763Z,21.17
2023-02-15T13:08:13.158Z,23.23
2023-02-15T13:10:43.681Z,22.23
2023-02-15T13:13:15.885Z,23.83
2023-02-15T13:15:46.536Z,25.37
2023-02-15T13:18:17.657Z,25.23
2023-02-15T13:20:47.403Z,27.53
2023-02-15T13:23:27.920Z,27.23
2023-02-15T13:25:58.179Z,28.83
2023-02-15T13:28:33.398Z,31.30
2023-02-15T13:31:01.370Z,26.53
2023-02-15T13:33:34.032Z,28.40
2023-02-15T13:36:10.469Z,42.60
2023-02-15T13:39:16.358Z,29.47
2023-02-15T13:41:56.225Z,34.87
2023-02-15T13:44:35.865Z,24.93
2023-02-15T13:47:18.085Z,31.50
2023-02-15T13:50:02.095Z,29.93
2023-02-15T13:52:33.153Z,24.47
2023-02-15T13:55:36.332Z,27.93
2023-02-15T13:58:51.969Z,25.60
2023-02-15T14:01:25.286Z,22.40
2023-02-15T14:04:37.452Z,34.37
2023-02-15T14:07:22.095Z,28.77
2023-02-15T14:09:59.651Z,32.70
2023-02-15T14:12:48.176Z,27.40
2023-02-15T14:15:27.268Z,22.90
2023-02-15T14:18:09.037Z,26.80
2023-02-15T14:20:52.662Z,18.70
2023-02-15T14:23:36.582Z,24.80
2023-02-15T14:26:10.157Z,31.37
2023-02-15T14:28:47.325Z,26.90
2023-02-15T14:31:29.322Z,23.07
2023-02-15T14:33:58.386Z,36.13
2023-02-15T14:36:28.969Z,23.53
2023-02-15T14:39:06.226Z,32.13
2023-02-15T14:41:41.744Z,21.87
2023-02-15T14:44:16.176Z,24.13
2023-02-15T14:46:51.475Z,35.00
2023-02-15T14:49:22.199Z,32.90
2023-02-15T14:52:05.341Z,30.13
2023-02-15T14:54:57.737Z,24.03
2023-02-15T14:57:34.837Z,25.90
2023-02-15T15:00:22.546Z,36.50
2023-02-15T15:02:52.928Z,30.13
2023-02-15T15:05:32.242Z,28.03
2023-02-15T15:08:02.103Z,31.50
2023-02-15T15:10:42.755Z,24.37
2023-02-15T15:13:38.311Z,27.73
2023-02-15T15:16:26.119Z,31.67
2023-02-15T15:18:55.963Z,34.13
2023-02-15T15:21:54.386Z,41.77
2023-02-15T15:24:47.750Z,30.30
2023-02-15T15:27:38.213Z,27.57
2023-02-15T15:31:00.016Z,24.47
2023-02-15T15:34:19.829Z,31.90
2023-02-15T15:37:27.877Z,30.57
2023-02-15T15:40:22.437Z,32.97
2023-02-15T15:43:09.948Z,32.53
2023-02-15T15:45:52.798Z,35.73
2023-02-15T15:48:33.821Z,30.87
2023-02-15T15:51:05.246Z,39.77
2023-02-15T15:53:41.504Z,36.73
2023-02-15T15:56:14.007Z,26.33
2023-02-15T15:58:47.278Z,32.57
2023-02-15T16:01:15.069Z,42.13
2023-02-15T16:03:51.671Z,38.43
2023-02-15T16:06:34.482Z,36.77
2023-02-15T16:09:18.747Z,37.90
2023-02-15T16:11:48.373Z,46.63
2023-02-15T16:14:18.286Z,41.60
2023-02-15T16:16:51.726Z,49.10
2023-02-15T16:19:27.225Z,43.30
2023-02-15T16:21:58.294Z,39.53
2023-02-15T16:25:12.505Z,42.73
2023-02-15T16:27:41.969Z,48.10
2023-02-15T16:30:31.067Z,40.27
2023-02-15T16:33:07.461Z,56.07
2023-02-15T16:35:35.338Z,47.47
2023-02-15T16:38:03.059Z,45.97
2023-02-15T16:40:42.695Z,43.23
2023-02-15T16:43:16.391Z,47.23
2023-02-15T16:45:44.394Z,49.50
2023-02-15T16:48:19.984Z,51.70
2023-02-15T16:50:51.586Z,42.40
2023-02-15T16:53:22.779Z,51.57
2023-02-15T16:55:54.123Z,71.40
2023-02-15T16:58:28.160Z,40.27
2023-02-15T17:00:59.111Z,47.67
2023-02-15T17:03:27.518Z,52.73
2023-02-15T17:05:57.016Z,41.63
2023-02-15T17:08:32.668Z,44.03
2023-02-15T17:11:16.490Z,53.60
2023-02-15T17:14:14.974Z,40.13
2023-02-15T17:16:50.039Z,51.43
2023-02-15T17:19:21.618Z,44.33
2023-02-15T17:21:52.741Z,47.90
2023-02-15T17:24:26.265Z,60.13
2023-02-15T17:27:00.113Z,59.60
2023-02-15T17:29:34.208Z,48.27
2023-02-15T17:32:02.464Z,49.10
2023-02-15T17:35:08.566Z,46.47
2023-02-15T17:37:45.831Z,54.43
2023-02-15T17:40:21.322Z,44.67
2023-02-15T17:42:49.606Z,46.27
2023-02-15T17:45:17.485Z,51.33
2023-02-15T17:47:46.625Z,42.90
2023-02-15T17:50:21.101Z,49.77
2023-02-15T17:52:48.840Z,51.73
2023-02-15T17:55:37.235Z,56.83
2023-02-15T17:58:08.289Z,58.83
2023-02-15T18:00:56.897Z,45.83
2023-02-15T18:03:43.889Z,46.00
2023-02-15T18:06:31.608Z,56.13
2023-02-15T18:09:17.523Z,54.07
2023-02-15T18:11:49.008Z,66.37
2023-02-15T18:14:17.132Z,54.13
2023-02-15T18:16:45.622Z,57.00
2023-02-15T18:19:17.247Z,49.00
2023-02-15T18:21:45.560Z,55.27
2023-02-15T18:24:18.306Z,51.33
2023-02-15T18:26:46.006Z,56.63
2023-02-15T18:29:13.516Z,56.70
2023-02-15T18:31:44.015Z,50.00
2023-02-15T18:34:24.440Z,62.83
2023-02-15T18:36:52.132Z,55.67
2023-02-15T18:39:36.460Z,70.83
2023-02-15T18:42:04.588Z,53.50
2023-02-15T18:44:32.325Z,58.30
2023-02-15T18:47:00.392Z,57.23
2023-02-15T18:49:27.837Z,60.10
2023-02-15T18:51:55.171Z,60.73
2023-02-15T18:54:24.562Z,65.57
2023-02-15T18:56:55.431Z,62.40
2023-02-15T18:59:23.731Z,56.43
2023-02-15T19:01:51.372Z,59.43
2023-02-15T19:04:19.975Z,66.00
2023-02-15T19:06:48.916Z,68.67
2023-02-15T19:09:19.311Z,61.07
2023-02-15T19:11:50.551Z,67.00
2023-02-15T19:14:27.607Z,60.93
2023-02-15T19:16:56.248Z,58.40
2023-02-15T19:19:24.792Z,51.20
2023-02-15T19:21:52.923Z,65.17
2023-02-15T19:24:25.207Z,54.57
2023-02-15T19:26:53.028Z,63.57
2023-02-15T19:29:27.128Z,62.83
2023-02-15T19:31:54.673Z,56.97
2023-02-15T19:34:23.057Z,67.77
2023-02-15T19:36:53.388Z,61.00
2023-02-15T19:39:27.079Z,62.00
2023-02-15T19:41:54.573Z,70.93
2023-02-15T19:44:22.322Z,65.20
2023-02-15T19:46:49.803Z,58.63
2023-02-15T19:49:17.385Z,59.73
2023-02-15T19:51:46.833Z,56.73
2023-02-15T19:54:22.825Z,63.17
2023-02-15T19:56:50.111Z,64.93
2023-02-15T19:59:24.484Z,55.60
2023-02-15T20:01:52.684Z,61.83
2023-02-15T20:04:20.447Z,56.10
2023-02-15T20:06:50.168Z,69.77
2023-02-15T20:09:23.315Z,63.40
2023-02-15T20:11:51.527Z,63.83
2023-02-15T20:14:19.469Z,57.80
2023-02-15T20:16:47.295Z,59.83
2023-02-15T20:19:15.356Z,73.23
2023-02-15T20:21:44.374Z,56.37
2023-02-15T20:24:16.065Z,64.30
2023-02-15T20:26:43.514Z,66.17
2023-02-15T20:29:13.286Z,57.00
2023-02-15T20:31:40.827Z,54.67
2023-02-15T20:34:08.296Z,66.03
2023-02-15T20:36:36.485Z,69.73
2023-02-15T20:39:10.797Z,57.80
2023-02-15T20:41:39.513Z,62.73
2023-02-15T20:44:22.745Z,64.80
2023-02-15T20:46:51.461Z,57.20
2023-02-15T20:49:18.879Z,61.27
2023-02-15T20:51:47.335Z,77.80
2023-02-15T20:54:16.845Z,69.47
2023-02-15T20:56:45.130Z,57.90
2023-02-15T20:59:24.487Z,72.33
2023-02-15T21:01:55.203Z,61.50
2023-02-15T21:04:26.411Z,63.93
2023-02-15T21:06:53.849Z,62.90
2023-02-15T21:09:21.297Z,77.33
2023-02-15T21:11:50.577Z,68.90
2023-02-15T21:14:19.870Z,72.97
2023-02-15T21:16:48.532Z,70.70
2023-02-15T21:19:17.822Z,69.13
2023-02-15T21:21:46.106Z,63.73
2023-02-15T21:24:20.020Z,61.00
2023-02-15T21:26:48.763Z,60.17
2023-02-15T21:29:17.352Z,67.50
2023-02-15T21:31:45.609Z,69.83
2023-02-15T21:34:13.782Z,77.27
2023-02-15T21:36:42.261Z,61.67
2023-02-15T21:39:17.739Z,79.27
2023-02-15T21:42:05.379Z,75.47
2023-02-15T21:44:52.064Z,68.50
2023-02-15T21:47:39.339Z,64.20
2023-02-15T21:50:23.203Z,66.53
2023-02-15T21:52:50.721Z,73.73
2023-02-15T21:55:18.118Z,78.13
2023-02-15T21:57:45.733Z,78.67
2023-02-15T22:00:19.115Z,76.70
2023-02-15T22:02:48.212Z,78.23
2023-02-15T22:05:18.279Z,79.33
2023-02-15T22:07:45.945Z,66.20
2023-02-15T22:10:13.386Z,76.13
2023-02-15T22:12:42.759Z,59.83
2023-02-15T22:15:19.382Z,75.33
2023-02-15T22:17:46.722Z,63.00
2023-02-15T22:20:18.171Z,69.20
2023-02-15T22:22:46.108Z,68.87
2023-02-15T22:25:15.981Z,64.37
2023-02-15T22:27:45.302Z,64.87
2023-02-15T22:30:24.736Z,65.67
2023-02-15T22:32:52.456Z,63.00
2023-02-15T22:35:22.100Z,60.73
2023-02-15T22:37:49.371Z,61.10
2023-02-15T22:40:18.622Z,67.80
2023-02-15T22:42:47.992Z,61.67
2023-02-15T22:45:18.837Z,52.90
2023-02-15T22:47:48.389Z,61.73
2023-02-15T22:50:17.833Z,60.53
2023-02-15T22:52:45.167Z,64.73
2023-02-15T22:55:15.598Z,73.40
2023-02-15T22:57:44.542Z,72.17
2023-02-15T23:00:17.058Z,56.90
2023-02-15T23:02:44.453Z,57.13
2023-02-15T23:05:19.033Z,61.47
2023-02-15T23:07:47.064Z,75.53
2023-02-15T23:10:20.697Z,64.67
2023-02-15T23:13:07.333Z,69.40
2023-02-15T23:15:35.426Z,58.43
2023-02-15T23:18:15.038Z,65.77
2023-02-15T23:20:43.283Z,65.00
2023-02-15T23:23:12.726Z,56.63
2023-02-15T23:25:40.598Z,57.53
2023-02-15T23:28:17.760Z,77.50
2023-02-15T23:30:45.454Z,72.47
2023-02-15T23:33:12.966Z,62.87
2023-02-15T23:35:40.723Z,73.30
2023-02-15T23:38:22.990Z,46.23
2023-02-15T23:41:20.713Z,62.50
2023-02-15T23:43:52.846Z,59.37
2023-02-15T23:46:26.798Z,56.13
2023-02-15T23:48:54.808Z,53.10
2023-02-15T23:51:27.149Z,60.90
2023-02-15T23:53:55.102Z,60.07
2023-02-15T23:56:22.380Z,52.63
2023-02-15T23:58:50.043Z,56.60
